Pont Aven — FNPN — position and weather

sailwx.info

Track history (hours):
 
Tides and Currents Weather Stations Pressure Air Temp Water Temp Dewpoint Dewpoint Depression Visibility Wind Speed Wind Dir Waves Ship Positions

Pont Aven

Last reported at 2019-Jun-16 14:30 UTC. Time now 2019-Jun-16 15:01 UTC.
Position N 50°22' W 004°09'.

Length 185 m; beam 31 m.

Type: Passenger vessel. MMSI: 228183600.

Date/timePositionNaut miles runAvg speedWind from/ knotsBaromVisibWave heightAir tempDewpointWater temp
2019-Jun-16 14:30N 50°22' W 004°09'0 0.0
2019-Jun-16 14:00N 50°22' W 004°09'0 0.6
2019-Jun-16 13:31N 50°22' W 004°09'612.7
2019-Jun-16 13:00N 50°15' W 004°10'1121.7
2019-Jun-16 12:31N 50°04' W 004°09'1121.5
2019-Jun-16 12:00N 49°54' W 004°08'1121.4
2019-Jun-16 11:31N 49°43' W 004°06'51 6.8
2019-Jun-16 03:58N 48°52' W 004°05'22119.6
2019-Jun-15 16:43N 51°34' W 007°59'521.5
2019-Jun-15 16:30N 51°37' W 008°04'1020.5
2019-Jun-15 16:01N 51°45' W 008°15'611.4
2019-Jun-15 15:31N 51°51' W 008°16'2 4.3
2019-Jun-15 15:00N 51°50' W 008°19'0 0.0
2019-Jun-15 14:30N 51°50' W 008°19'0 0.0
2019-Jun-15 14:00N 51°50' W 008°19'0 0.0
2019-Jun-15 13:30N 51°50' W 008°19'0 0.0
2019-Jun-15 13:00N 51°50' W 008°19'0 0.0
2019-Jun-15 12:30N 51°50' W 008°19'0 0.0
2019-Jun-15 12:00N 51°50' W 008°19'0 0.0
2019-Jun-15 11:30N 51°50' W 008°19'0 0.0
2019-Jun-15 11:00N 51°50' W 008°19'0 0.0
2019-Jun-15 10:30N 51°50' W 008°19'0 0.0
2019-Jun-15 10:00N 51°50' W 008°19'0 0.0
2019-Jun-15 09:30N 51°50' W 008°19'0 0.0
2019-Jun-15 09:00N 51°50' W 008°19'0 0.0
2019-Jun-15 08:30N 51°50' W 008°20'1 2.7
2019-Jun-15 08:00N 51°51' W 008°18'4 8.6
2019-Jun-15 07:30N 51°47' W 008°15'917.0
2019-Jun-15 07:00N 51°40' W 008°08'1019.7
2019-Jun-15 06:30N 51°33' W 007°56'917.9
2019-Jun-15 06:01N 51°27' W 007°45'918.1
2019-Jun-15 05:30N 51°21' W 007°35'18619.7
2019-Jun-14 20:04N 49°02' W 004°21'16 2.4
2019-Jun-14 13:24N 48°47' W 004°19'717.1
2019-Jun-14 13:00N 48°47' W 004°29'816.3
2019-Jun-14 12:30N 48°44' W 004°41'917.0
2019-Jun-14 12:00N 48°37' W 004°48'816.8
2019-Jun-14 11:30N 48°30' W 004°55'816.6
2019-Jun-14 11:01N 48°25' W 005°05'714.6
2019-Jun-14 10:30N 48°18' W 005°03'714.4
2019-Jun-14 10:01N 48°16' W 004°53'715.0
2019-Jun-14 09:31N 48°18' W 004°42'611.5
2019-Jun-14 09:00N 48°21' W 004°35'5 9.7
2019-Jun-14 08:28N 48°23' W 004°28'0 0.1
2019-Jun-14 07:58N 48°23' W 004°28'0 0.0
2019-Jun-14 07:28N 48°23' W 004°28'0 0.0
2019-Jun-14 06:58N 48°23' W 004°28'0 0.4
2019-Jun-14 06:28N 48°23' W 004°28'0 0.6
2019-Jun-14 05:58N 48°23' W 004°27'0 0.0
2019-Jun-14 05:28N 48°23' W 004°27'0 0.0
2019-Jun-14 04:58N 48°23' W 004°27'0 0.0
2019-Jun-14 04:28N 48°23' W 004°27'0 0.0
2019-Jun-14 03:58N 48°23' W 004°27'0 0.0
2019-Jun-14 03:28N 48°23' W 004°27'0 0.0
2019-Jun-14 02:58N 48°23' W 004°27'0 0.0
2019-Jun-14 02:28N 48°23' W 004°27'0 0.0
2019-Jun-14 01:58N 48°23' W 004°27'0 0.0
2019-Jun-14 01:28N 48°23' W 004°27'0 0.0
2019-Jun-14 00:58N 48°23' W 004°27'0 0.0
2019-Jun-14 00:28N 48°23' W 004°27'0 0.0
2019-Jun-13 23:58N 48°23' W 004°27'0 0.0
2019-Jun-13 23:28N 48°23' W 004°27'0 0.0
2019-Jun-13 22:58N 48°23' W 004°27'0 0.0
2019-Jun-13 22:28N 48°23' W 004°27'0 0.0
2019-Jun-13 21:58N 48°23' W 004°27'0 0.0
2019-Jun-13 21:28N 48°23' W 004°27'0 0.0
2019-Jun-13 20:58N 48°23' W 004°27'0 0.0
2019-Jun-13 20:28N 48°23' W 004°27'0 0.0
2019-Jun-13 19:58N 48°23' W 004°27'0 0.0
2019-Jun-13 19:28N 48°23' W 004°27'0 0.0
2019-Jun-13 18:58N 48°23' W 004°27'0 0.0
2019-Jun-13 18:28N 48°23' W 004°27'0 0.0
2019-Jun-13 17:58N 48°23' W 004°27'0 0.0
2019-Jun-13 17:28N 48°23' W 004°27'0 0.0
2019-Jun-13 16:58N 48°23' W 004°27'0 0.0
2019-Jun-13 16:28N 48°23' W 004°27'0 0.0
2019-Jun-13 15:58N 48°23' W 004°27'0 0.0
2019-Jun-13 15:28N 48°23' W 004°27'0 0.0
2019-Jun-13 14:58N 48°23' W 004°27'0 0.0
2019-Jun-13 14:28N 48°23' W 004°27'0 0.0
2019-Jun-13 13:58N 48°23' W 004°27'0 0.0
2019-Jun-13 13:28N 48°23' W 004°27'0 0.0
2019-Jun-13 12:58N 48°23' W 004°27'0 0.0
2019-Jun-13 12:28N 48°23' W 004°27'0 0.0
2019-Jun-13 11:58N 48°23' W 004°27'0 0.0
2019-Jun-13 11:28N 48°23' W 004°27'0 0.0
2019-Jun-13 10:55N 48°23' W 004°27'0 0.0
2019-Jun-13 10:28N 48°23' W 004°27'0 0.0
2019-Jun-13 09:58N 48°23' W 004°27'0 0.0
2019-Jun-13 09:28N 48°23' W 004°27'0 0.0
2019-Jun-13 08:58N 48°23' W 004°27'0 0.0
2019-Jun-13 08:28N 48°23' W 004°27'0 0.0
2019-Jun-13 07:58N 48°23' W 004°27'0 0.0
2019-Jun-13 07:28N 48°23' W 004°27'0 0.0
2019-Jun-13 06:58N 48°23' W 004°27'0 0.0
2019-Jun-13 06:28N 48°23' W 004°27'0 0.0
2019-Jun-13 05:58N 48°23' W 004°27'0 0.0
2019-Jun-13 05:28N 48°23' W 004°27'0 0.0
2019-Jun-13 04:58N 48°23' W 004°27'0 0.0
2019-Jun-13 04:28N 48°23' W 004°27'0 0.0
2019-Jun-13 03:58N 48°23' W 004°27'0 0.0
2019-Jun-13 03:28N 48°23' W 004°27'0 0.0
2019-Jun-13 02:58N 48°23' W 004°27'0 0.0
2019-Jun-13 02:28N 48°23' W 004°27'0 0.0
2019-Jun-13 01:58N 48°23' W 004°27'0 0.0
2019-Jun-13 01:28N 48°23' W 004°27'0 0.0
2019-Jun-13 00:58N 48°23' W 004°27'0 0.0
2019-Jun-13 00:28N 48°23' W 004°27'0 0.0
2019-Jun-12 23:58N 48°23' W 004°27'0 0.0
2019-Jun-12 23:28N 48°23' W 004°27'0 0.0
2019-Jun-12 22:58N 48°23' W 004°27'0 0.0
2019-Jun-12 22:28N 48°23' W 004°27'0 0.0
2019-Jun-12 21:58N 48°23' W 004°27'0 0.0
2019-Jun-12 21:28N 48°23' W 004°27'0 0.0
2019-Jun-12 20:58N 48°23' W 004°27'0 0.0
2019-Jun-12 20:28N 48°23' W 004°27'0 0.0
2019-Jun-12 19:58N 48°23' W 004°27'0 0.0
2019-Jun-12 19:28N 48°23' W 004°27'0 0.0
2019-Jun-12 18:58N 48°23' W 004°27'0 0.0
2019-Jun-12 18:28N 48°23' W 004°27'0 0.0
2019-Jun-12 17:58N 48°23' W 004°27'0 0.0
2019-Jun-12 17:28N 48°23' W 004°27'0 0.0
2019-Jun-12 16:58N 48°23' W 004°27'0 0.0
2019-Jun-12 16:28N 48°23' W 004°27'0 0.0
2019-Jun-12 15:58N 48°23' W 004°27'0 0.0
2019-Jun-12 15:28N 48°23' W 004°27'0 0.0
2019-Jun-12 14:58N 48°23' W 004°27'0 0.0
2019-Jun-12 14:28N 48°23' W 004°27'0 0.0
2019-Jun-12 13:58N 48°23' W 004°27'0 0.0
2019-Jun-12 13:28N 48°23' W 004°27'0 0.0
2019-Jun-12 12:58N 48°23' W 004°27'0 0.0
2019-Jun-12 12:28N 48°23' W 004°27'0 0.0
2019-Jun-12 11:58N 48°23' W 004°27'0 0.0
2019-Jun-12 11:28N 48°23' W 004°27'0 0.0
2019-Jun-12 10:58N 48°23' W 004°27'0 0.0
2019-Jun-12 10:28N 48°23' W 004°27'0 0.0
2019-Jun-12 09:58N 48°23' W 004°27'0 0.0
2019-Jun-12 09:28N 48°23' W 004°27'0 0.0
2019-Jun-12 08:58N 48°23' W 004°27'0 0.0
2019-Jun-12 08:28N 48°23' W 004°27'0 0.0
2019-Jun-12 07:58N 48°23' W 004°27'0 0.0
2019-Jun-12 07:28N 48°23' W 004°27'0 0.0
2019-Jun-12 06:58N 48°23' W 004°27'0 0.0
2019-Jun-12 06:28N 48°23' W 004°27'0 0.0
2019-Jun-12 05:58N 48°23' W 004°27'0 0.0
2019-Jun-12 05:28N 48°23' W 004°27'0 0.0
2019-Jun-12 04:58N 48°23' W 004°27'0 0.0
2019-Jun-12 04:28N 48°23' W 004°27'0 0.0
2019-Jun-12 03:58N 48°23' W 004°27'0 0.0
2019-Jun-12 03:28N 48°23' W 004°27'0 0.0
2019-Jun-12 02:58N 48°23' W 004°27'0 0.0
2019-Jun-12 01:58N 48°23' W 004°27'0 0.0
2019-Jun-12 01:28N 48°23' W 004°27'0 0.0
2019-Jun-12 00:58N 48°23' W 004°27'0 0.0
2019-Jun-12 00:28N 48°23' W 004°27'0 0.0
2019-Jun-11 23:58N 48°23' W 004°27'0 0.0
2019-Jun-11 23:28N 48°23' W 004°27'0 0.0
2019-Jun-11 22:58N 48°23' W 004°27'0 0.0
2019-Jun-11 22:28N 48°23' W 004°27'0 0.0
2019-Jun-11 21:58N 48°23' W 004°27'0 0.0
2019-Jun-11 21:28N 48°23' W 004°27'0 0.0
2019-Jun-11 20:58N 48°23' W 004°27'0 0.0
2019-Jun-11 20:28N 48°23' W 004°27'0 0.0
2019-Jun-11 19:58N 48°23' W 004°27'0 0.0
2019-Jun-11 19:28N 48°23' W 004°27'0 0.0
2019-Jun-11 18:58N 48°23' W 004°27'0 0.0
2019-Jun-11 18:28N 48°23' W 004°27'0 0.0
2019-Jun-11 17:58N 48°23' W 004°27'0 0.0
2019-Jun-11 17:28N 48°23' W 004°27'0 0.0
2019-Jun-11 16:58N 48°23' W 004°27'0 0.0
2019-Jun-11 16:28N 48°23' W 004°27'0 0.0
2019-Jun-11 15:58N 48°23' W 004°27'0 0.0
2019-Jun-11 15:28N 48°23' W 004°27'0 0.0
2019-Jun-11 14:58N 48°23' W 004°27'0 0.0
2019-Jun-11 14:28N 48°23' W 004°27'0 0.0
2019-Jun-11 13:58N 48°23' W 004°27'0 0.0
2019-Jun-11 13:28N 48°23' W 004°27'0 0.0
2019-Jun-11 12:58N 48°23' W 004°27'0 0.0
2019-Jun-11 12:28N 48°23' W 004°27'0 0.0
2019-Jun-11 11:58N 48°23' W 004°27'0 0.0
2019-Jun-11 11:28N 48°23' W 004°27'0 0.0
2019-Jun-11 10:58N 48°23' W 004°27'0 0.0
2019-Jun-11 10:28N 48°23' W 004°27'0 0.0
2019-Jun-11 09:58N 48°23' W 004°27'0 0.0
2019-Jun-11 09:28N 48°23' W 004°27'0 0.0
2019-Jun-11 08:58N 48°23' W 004°27'0 0.0
2019-Jun-11 08:28N 48°23' W 004°27'0 0.0
2019-Jun-11 07:58N 48°23' W 004°27'0 0.0
2019-Jun-11 07:28N 48°23' W 004°27'0 0.0
2019-Jun-11 06:58N 48°23' W 004°27'0 0.0
2019-Jun-11 06:28N 48°23' W 004°27'0 0.0
2019-Jun-11 05:58N 48°23' W 004°27'0 0.0
2019-Jun-11 05:28N 48°23' W 004°27'0 0.0
2019-Jun-11 04:58N 48°23' W 004°27'0 0.0
2019-Jun-11 04:28N 48°23' W 004°27'0 0.0
2019-Jun-11 03:58N 48°23' W 004°27'0 0.0
2019-Jun-11 03:28N 48°23' W 004°27'0 0.0
2019-Jun-11 02:58N 48°23' W 004°27'0 0.0
2019-Jun-11 02:28N 48°23' W 004°27'0 0.0
2019-Jun-11 01:58N 48°23' W 004°27'0 0.0
2019-Jun-11 01:28N 48°23' W 004°27'0 0.0
2019-Jun-11 00:58N 48°23' W 004°27'0 0.0
2019-Jun-11 00:28N 48°23' W 004°27'0 0.0
2019-Jun-10 23:58N 48°23' W 004°27'0 0.0
2019-Jun-10 23:28N 48°23' W 004°27'0 0.0
2019-Jun-10 22:58N 48°23' W 004°27'0 0.0
2019-Jun-10 22:28N 48°23' W 004°27'0 0.0
2019-Jun-10 21:58N 48°23' W 004°27'0 0.0
2019-Jun-10 21:28N 48°23' W 004°27'0 0.0
2019-Jun-10 20:58N 48°23' W 004°27'0 0.0
2019-Jun-10 20:28N 48°23' W 004°27'0 0.0
2019-Jun-10 19:58N 48°23' W 004°27'0 0.0
2019-Jun-10 19:28N 48°23' W 004°27'0 0.0
2019-Jun-10 18:58N 48°23' W 004°27'0 0.0
2019-Jun-10 18:28N 48°23' W 004°27'0 0.0
2019-Jun-10 17:58N 48°23' W 004°27'0 0.0
2019-Jun-10 17:28N 48°23' W 004°27'0 0.0
2019-Jun-10 16:58N 48°23' W 004°27'0 0.0
2019-Jun-10 16:28N 48°23' W 004°27'0 0.0
2019-Jun-10 15:58N 48°23' W 004°27'0 0.0
2019-Jun-10 15:28N 48°23' W 004°27'0 0.0
2019-Jun-10 14:58N 48°23' W 004°27'0 0.0
2019-Jun-10 14:28N 48°23' W 004°27'0 0.0
2019-Jun-10 13:58N 48°23' W 004°27'0 0.0
2019-Jun-10 13:28N 48°23' W 004°27'0 0.0
2019-Jun-10 12:58N 48°23' W 004°27'0 0.0
2019-Jun-10 12:28N 48°23' W 004°27'0 0.0
2019-Jun-10 11:58N 48°23' W 004°27'0 0.0
2019-Jun-10 11:28N 48°23' W 004°27'0 0.0
2019-Jun-10 10:58N 48°23' W 004°27'0 0.0
2019-Jun-10 10:28N 48°23' W 004°27'0 0.0
2019-Jun-10 09:58N 48°23' W 004°27'0 0.0
2019-Jun-10 09:28N 48°23' W 004°27'0 0.0
2019-Jun-10 08:58N 48°23' W 004°27'0 0.0
2019-Jun-10 08:28N 48°23' W 004°27'0 0.0
2019-Jun-10 07:58N 48°23' W 004°27'0 0.0
2019-Jun-10 07:28N 48°23' W 004°27'0 0.0
2019-Jun-10 06:58N 48°23' W 004°27'0 0.0
2019-Jun-10 06:28N 48°23' W 004°27'0 0.0
2019-Jun-10 05:58N 48°23' W 004°27'0 0.0
2019-Jun-10 05:28N 48°23' W 004°27'0 0.0
2019-Jun-10 04:58N 48°23' W 004°27'0 0.0
2019-Jun-10 04:28N 48°23' W 004°27'0 0.0
2019-Jun-10 03:58N 48°23' W 004°27'0 0.0
2019-Jun-10 03:28N 48°23' W 004°27'0 0.0
2019-Jun-10 02:58N 48°23' W 004°27'0 0.0
2019-Jun-10 02:28N 48°23' W 004°27'0 0.0
2019-Jun-10 01:58N 48°23' W 004°27'0 0.0
2019-Jun-10 01:28N 48°23' W 004°27'0 0.0
2019-Jun-10 00:58N 48°23' W 004°27'0 0.0
2019-Jun-10 00:28N 48°23' W 004°27'0 0.0
2019-Jun-09 23:58N 48°23' W 004°27'0 0.0
2019-Jun-09 23:28N 48°23' W 004°27'0 0.0
2019-Jun-09 22:58N 48°23' W 004°27'0 0.0
2019-Jun-09 22:28N 48°23' W 004°27'0 0.0
2019-Jun-09 21:58N 48°23' W 004°27'0 0.0
2019-Jun-09 21:28N 48°23' W 004°27'0 0.0
2019-Jun-09 20:58N 48°23' W 004°27'0 0.0
2019-Jun-09 20:28N 48°23' W 004°27'0 0.0
2019-Jun-09 19:58N 48°23' W 004°27'0 0.0
2019-Jun-09 19:28N 48°23' W 004°27'0 0.0
2019-Jun-09 18:58N 48°23' W 004°27'0 0.0
2019-Jun-09 18:28N 48°23' W 004°27'0 0.0
2019-Jun-09 17:58N 48°23' W 004°27'0 0.0
2019-Jun-09 17:28N 48°23' W 004°27'0 0.0
2019-Jun-09 16:58N 48°23' W 004°27'0 0.0
2019-Jun-09 16:28N 48°23' W 004°27'0 0.0
2019-Jun-09 15:58N 48°23' W 004°27'0 0.0
2019-Jun-09 15:28N 48°23' W 004°27'0 0.0
2019-Jun-09 14:58N 48°23' W 004°27'0 0.0
2019-Jun-09 14:28N 48°23' W 004°27'0 0.0
2019-Jun-09 13:58N 48°23' W 004°27'0 0.0
2019-Jun-09 13:28N 48°23' W 004°27'0 0.0
2019-Jun-09 12:58N 48°23' W 004°27'0 0.0
2019-Jun-09 12:28N 48°23' W 004°27'0 0.0
2019-Jun-09 11:58N 48°23' W 004°27'0 0.0
2019-Jun-09 11:28N 48°23' W 004°27'0 0.0
2019-Jun-09 10:58N 48°23' W 004°27'0 0.0
2019-Jun-09 10:28N 48°23' W 004°27'0 0.0
2019-Jun-09 09:55N 48°23' W 004°27'0 0.0
2019-Jun-09 09:28N 48°23' W 004°27'0 0.0
2019-Jun-09 08:58N 48°23' W 004°27'0 0.0
2019-Jun-09 08:28N 48°23' W 004°27'0 0.0
2019-Jun-09 07:58N 48°23' W 004°27'0 0.0
2019-Jun-09 07:28N 48°23' W 004°27'0 0.0
2019-Jun-09 06:58N 48°23' W 004°27'0 0.0
2019-Jun-09 06:28N 48°23' W 004°27'0 0.0
2019-Jun-09 05:58N 48°23' W 004°27'0 0.0
2019-Jun-09 05:28N 48°23' W 004°27'0 0.0
2019-Jun-09 04:58N 48°23' W 004°27'0 0.0
2019-Jun-09 03:58N 48°23' W 004°27'0 0.0
2019-Jun-09 03:28N 48°23' W 004°27'0 0.0
2019-Jun-09 02:58N 48°23' W 004°27'0 0.0
2019-Jun-09 02:28N 48°23' W 004°27'0 0.0
2019-Jun-09 01:58N 48°23' W 004°27'0 0.0
2019-Jun-09 01:28N 48°23' W 004°27'0 0.0
2019-Jun-09 00:58N 48°23' W 004°27'0 0.0
2019-Jun-09 00:28N 48°23' W 004°27'0 0.0
2019-Jun-08 23:58N 48°23' W 004°27'0 0.0
2019-Jun-08 23:28N 48°23' W 004°27'0 0.0
2019-Jun-08 22:58N 48°23' W 004°27'0 0.0
2019-Jun-08 22:28N 48°23' W 004°27'0 0.0
2019-Jun-08 21:58N 48°23' W 004°27'0 0.0
2019-Jun-08 21:28N 48°23' W 004°27'0 0.0
2019-Jun-08 20:58N 48°23' W 004°27'0 0.0
2019-Jun-08 20:28N 48°23' W 004°27'0 0.0
2019-Jun-08 19:58N 48°23' W 004°27'0 0.0
2019-Jun-08 19:28N 48°23' W 004°27'0 0.0
2019-Jun-08 18:58N 48°23' W 004°27'0 0.0
2019-Jun-08 18:28N 48°23' W 004°27'0 0.0
2019-Jun-08 17:58N 48°23' W 004°27'0 0.0
2019-Jun-08 17:28N 48°23' W 004°27'0 0.0
2019-Jun-08 16:58N 48°23' W 004°27'0 0.0
2019-Jun-08 16:28N 48°23' W 004°27'0 0.0
2019-Jun-08 15:58N 48°23' W 004°27'0 0.0
2019-Jun-08 15:28N 48°23' W 004°27'0 0.0
2019-Jun-08 14:58N 48°23' W 004°27'0 0.0
2019-Jun-08 14:28N 48°23' W 004°27'0 0.0
2019-Jun-08 13:58N 48°23' W 004°27'0 0.0
2019-Jun-08 13:28N 48°23' W 004°27'0 0.0
2019-Jun-08 12:58N 48°23' W 004°27'0 0.0
2019-Jun-08 12:28N 48°23' W 004°27'0 0.0
2019-Jun-08 11:58N 48°23' W 004°27'0 0.0
2019-Jun-08 11:28N 48°23' W 004°27'0 0.0
2019-Jun-08 10:58N 48°23' W 004°27'0 0.0
2019-Jun-08 10:28N 48°23' W 004°27'0 0.0
2019-Jun-08 09:58N 48°23' W 004°27'0 0.0
2019-Jun-08 09:28N 48°23' W 004°27'0 0.0
2019-Jun-08 08:58N 48°23' W 004°27'0 0.0
2019-Jun-08 08:28N 48°23' W 004°27'0 0.0
2019-Jun-08 07:58N 48°23' W 004°27'0 0.0
2019-Jun-08 07:28N 48°23' W 004°27'0 0.0
2019-Jun-08 06:58N 48°23' W 004°27'0 0.0
2019-Jun-08 06:28N 48°23' W 004°27'0 0.0
2019-Jun-08 05:58N 48°23' W 004°27'0 0.0
2019-Jun-08 05:28N 48°23' W 004°27'0 0.0
2019-Jun-08 04:58N 48°23' W 004°27'0 0.0
2019-Jun-08 04:28N 48°23' W 004°27'0 0.0
2019-Jun-08 03:58N 48°23' W 004°27'0 0.0
2019-Jun-08 03:28N 48°23' W 004°27'0 0.0
2019-Jun-08 02:58N 48°23' W 004°27'0 0.0
2019-Jun-08 02:28N 48°23' W 004°27'0 0.0
2019-Jun-08 01:58N 48°23' W 004°27'0 0.0
2019-Jun-08 01:28N 48°23' W 004°27'0 0.0
2019-Jun-08 00:58N 48°23' W 004°27'0 0.0
2019-Jun-08 00:28N 48°23' W 004°27'0 0.0
2019-Jun-07 23:58N 48°23' W 004°27'0 0.0
2019-Jun-07 23:28N 48°23' W 004°27'0 0.0
2019-Jun-07 22:58N 48°23' W 004°27'0 0.0
2019-Jun-07 22:28N 48°23' W 004°27'0 0.0
2019-Jun-07 21:58N 48°23' W 004°27'0 0.0
2019-Jun-07 21:28N 48°23' W 004°27'0 0.0
2019-Jun-07 20:58N 48°23' W 004°27'0 0.0
2019-Jun-07 20:28N 48°23' W 004°27'0 0.0
2019-Jun-07 19:58N 48°23' W 004°27'0 0.0
2019-Jun-07 19:28N 48°23' W 004°27'0 0.0
2019-Jun-07 18:58N 48°23' W 004°27'0 0.0
2019-Jun-07 18:28N 48°23' W 004°27'0 0.0
2019-Jun-07 17:58N 48°23' W 004°27'0 0.0
2019-Jun-07 17:28N 48°23' W 004°27'0 0.0
2019-Jun-07 16:58N 48°23' W 004°27'0 0.0
2019-Jun-07 16:28N 48°23' W 004°27'0 0.0
2019-Jun-07 15:58N 48°23' W 004°27'0 0.0
2019-Jun-07 15:28N 48°23' W 004°27'0 0.0
2019-Jun-07 14:58N 48°23' W 004°27'0 0.0
2019-Jun-07 14:28N 48°23' W 004°27'0 0.0
2019-Jun-07 13:58N 48°23' W 004°27'0 0.0
2019-Jun-07 13:28N 48°23' W 004°27'0 0.0
2019-Jun-07 12:58N 48°23' W 004°27'0 0.0
2019-Jun-07 12:28N 48°23' W 004°27'0 0.0
2019-Jun-07 11:58N 48°23' W 004°27'0 0.0
2019-Jun-07 11:28N 48°23' W 004°27'0 0.0
2019-Jun-07 10:58N 48°23' W 004°27'0 0.0
2019-Jun-07 10:28N 48°23' W 004°27'0 0.0
2019-Jun-07 09:58N 48°23' W 004°27'0 0.0
2019-Jun-07 09:28N 48°23' W 004°27'0 0.0
2019-Jun-07 08:58N 48°23' W 004°27'0 0.0
2019-Jun-07 08:28N 48°23' W 004°27'0 0.0
2019-Jun-07 07:58N 48°23' W 004°27'0 0.0
2019-Jun-07 07:28N 48°23' W 004°27'0 0.0
2019-Jun-07 06:58N 48°23' W 004°27'0 0.0
2019-Jun-07 06:28N 48°23' W 004°27'0 0.0
2019-Jun-07 05:58N 48°23' W 004°27'0 0.0
2019-Jun-07 05:28N 48°23' W 004°27'0 0.0
2019-Jun-07 04:58N 48°23' W 004°27'0 0.0
2019-Jun-07 04:28N 48°23' W 004°27'0 0.0
2019-Jun-07 03:58N 48°23' W 004°27'0 0.0
2019-Jun-07 03:28N 48°23' W 004°27'0 0.0
2019-Jun-07 02:58N 48°23' W 004°27'0 0.0
2019-Jun-07 02:28N 48°23' W 004°27'0 0.0
2019-Jun-07 01:58N 48°23' W 004°27'0 0.0
2019-Jun-07 01:28N 48°23' W 004°27'0 0.0
2019-Jun-07 00:58N 48°23' W 004°27'0 0.0
2019-Jun-07 00:28N 48°23' W 004°27'0 0.0
2019-Jun-06 23:58N 48°23' W 004°27'0 0.0
2019-Jun-06 23:28N 48°23' W 004°27'0 0.0
2019-Jun-06 22:58N 48°23' W 004°27'0 0.0
2019-Jun-06 22:28N 48°23' W 004°27'0 0.0
2019-Jun-06 21:58N 48°23' W 004°27'0 0.0
2019-Jun-06 21:28N 48°23' W 004°27'0 0.0
2019-Jun-06 20:58N 48°23' W 004°27'0 0.0
2019-Jun-06 20:28N 48°23' W 004°27'0 0.0
2019-Jun-06 19:58N 48°23' W 004°27'0 0.0
2019-Jun-06 19:28N 48°23' W 004°27'0 0.0
2019-Jun-06 18:58N 48°23' W 004°27'0 0.0
2019-Jun-06 18:28N 48°23' W 004°27'0 0.0
2019-Jun-06 17:58N 48°23' W 004°27'0 0.0
2019-Jun-06 17:28N 48°23' W 004°27'0 0.0
2019-Jun-06 16:58N 48°23' W 004°27'0 0.0
2019-Jun-06 16:28N 48°23' W 004°27'0 0.0
2019-Jun-06 15:58N 48°23' W 004°27'0 0.0
2019-Jun-06 15:28N 48°23' W 004°27'0 0.0
2019-Jun-06 14:58N 48°23' W 004°27'  
Track history (hours):
 
Tides and Currents Weather Stations Pressure Air Temp Water Temp Dewpoint Dewpoint Depression Visibility Wind Speed Wind Dir Waves Ship Positions

Pont Aven

Last reported at 2019-Jun-16 14:30 UTC. Time now 2019-Jun-16 15:01 UTC.
Position N 50°22' W 004°09'.

Length 185 m; beam 31 m.

Type: Passenger vessel. MMSI: 228183600.

Date/timePositionNaut miles runAvg speedWind from/ knotsBaromVisibWave heightAir tempDewpointWater temp
2019-Jun-16 14:30N 50°22' W 004°09'0 0.0
2019-Jun-16 14:00N 50°22' W 004°09'0 0.6
2019-Jun-16 13:31N 50°22' W 004°09'612.7
2019-Jun-16 13:00N 50°15' W 004°10'1121.7
2019-Jun-16 12:31N 50°04' W 004°09'1121.5
2019-Jun-16 12:00N 49°54' W 004°08'1121.4
2019-Jun-16 11:31N 49°43' W 004°06'51 6.8
2019-Jun-16 03:58N 48°52' W 004°05'22119.6
2019-Jun-15 16:43N 51°34' W 007°59'521.5
2019-Jun-15 16:30N 51°37' W 008°04'1020.5
2019-Jun-15 16:01N 51°45' W 008°15'611.4
2019-Jun-15 15:31N 51°51' W 008°16'2 4.3
2019-Jun-15 15:00N 51°50' W 008°19'0 0.0
2019-Jun-15 14:30N 51°50' W 008°19'0 0.0
2019-Jun-15 14:00N 51°50' W 008°19'0 0.0
2019-Jun-15 13:30N 51°50' W 008°19'0 0.0
2019-Jun-15 13:00N 51°50' W 008°19'0 0.0
2019-Jun-15 12:30N 51°50' W 008°19'0 0.0
2019-Jun-15 12:00N 51°50' W 008°19'0 0.0
2019-Jun-15 11:30N 51°50' W 008°19'0 0.0
2019-Jun-15 11:00N 51°50' W 008°19'0 0.0
2019-Jun-15 10:30N 51°50' W 008°19'0 0.0
2019-Jun-15 10:00N 51°50' W 008°19'0 0.0
2019-Jun-15 09:30N 51°50' W 008°19'0 0.0
2019-Jun-15 09:00N 51°50' W 008°19'0 0.0
2019-Jun-15 08:30N 51°50' W 008°20'1 2.7
2019-Jun-15 08:00N 51°51' W 008°18'4 8.6
2019-Jun-15 07:30N 51°47' W 008°15'917.0
2019-Jun-15 07:00N 51°40' W 008°08'1019.7
2019-Jun-15 06:30N 51°33' W 007°56'917.9
2019-Jun-15 06:01N 51°27' W 007°45'918.1
2019-Jun-15 05:30N 51°21' W 007°35'18619.7
2019-Jun-14 20:04N 49°02' W 004°21'16 2.4
2019-Jun-14 13:24N 48°47' W 004°19'717.1
2019-Jun-14 13:00N 48°47' W 004°29'816.3
2019-Jun-14 12:30N 48°44' W 004°41'917.0
2019-Jun-14 12:00N 48°37' W 004°48'816.8
2019-Jun-14 11:30N 48°30' W 004°55'816.6
2019-Jun-14 11:01N 48°25' W 005°05'714.6
2019-Jun-14 10:30N 48°18' W 005°03'714.4
2019-Jun-14 10:01N 48°16' W 004°53'715.0
2019-Jun-14 09:31N 48°18' W 004°42'611.5
2019-Jun-14 09:00N 48°21' W 004°35'5 9.7
2019-Jun-14 08:28N 48°23' W 004°28'0 0.1
2019-Jun-14 07:58N 48°23' W 004°28'0 0.0
2019-Jun-14 07:28N 48°23' W 004°28'0 0.0
2019-Jun-14 06:58N 48°23' W 004°28'0 0.4
2019-Jun-14 06:28N 48°23' W 004°28'0 0.6
2019-Jun-14 05:58N 48°23' W 004°27'0 0.0
2019-Jun-14 05:28N 48°23' W 004°27'0 0.0
2019-Jun-14 04:58N 48°23' W 004°27'0 0.0
2019-Jun-14 04:28N 48°23' W 004°27'0 0.0
2019-Jun-14 03:58N 48°23' W 004°27'0 0.0
2019-Jun-14 03:28N 48°23' W 004°27'0 0.0
2019-Jun-14 02:58N 48°23' W 004°27'0 0.0
2019-Jun-14 02:28N 48°23' W 004°27'0 0.0
2019-Jun-14 01:58N 48°23' W 004°27'0 0.0
2019-Jun-14 01:28N 48°23' W 004°27'0 0.0
2019-Jun-14 00:58N 48°23' W 004°27'0 0.0
2019-Jun-14 00:28N 48°23' W 004°27'0 0.0
2019-Jun-13 23:58N 48°23' W 004°27'0 0.0
2019-Jun-13 23:28N 48°23' W 004°27'0 0.0
2019-Jun-13 22:58N 48°23' W 004°27'0 0.0
2019-Jun-13 22:28N 48°23' W 004°27'0 0.0
2019-Jun-13 21:58N 48°23' W 004°27'0 0.0
2019-Jun-13 21:28N 48°23' W 004°27'0 0.0
2019-Jun-13 20:58N 48°23' W 004°27'0 0.0
2019-Jun-13 20:28N 48°23' W 004°27'0 0.0
2019-Jun-13 19:58N 48°23' W 004°27'0 0.0
2019-Jun-13 19:28N 48°23' W 004°27'0 0.0
2019-Jun-13 18:58N 48°23' W 004°27'0 0.0
2019-Jun-13 18:28N 48°23' W 004°27'0 0.0
2019-Jun-13 17:58N 48°23' W 004°27'0 0.0
2019-Jun-13 17:28N 48°23' W 004°27'0 0.0
2019-Jun-13 16:58N 48°23' W 004°27'0 0.0
2019-Jun-13 16:28N 48°23' W 004°27'0 0.0
2019-Jun-13 15:58N 48°23' W 004°27'0 0.0
2019-Jun-13 15:28N 48°23' W 004°27'0 0.0
2019-Jun-13 14:58N 48°23' W 004°27'0 0.0
2019-Jun-13 14:28N 48°23' W 004°27'0 0.0
2019-Jun-13 13:58N 48°23' W 004°27'0 0.0
2019-Jun-13 13:28N 48°23' W 004°27'0 0.0
2019-Jun-13 12:58N 48°23' W 004°27'0 0.0
2019-Jun-13 12:28N 48°23' W 004°27'0 0.0
2019-Jun-13 11:58N 48°23' W 004°27'0 0.0
2019-Jun-13 11:28N 48°23' W 004°27'0 0.0
2019-Jun-13 10:55N 48°23' W 004°27'0 0.0
2019-Jun-13 10:28N 48°23' W 004°27'0 0.0
2019-Jun-13 09:58N 48°23' W 004°27'0 0.0
2019-Jun-13 09:28N 48°23' W 004°27'0 0.0
2019-Jun-13 08:58N 48°23' W 004°27'0 0.0
2019-Jun-13 08:28N 48°23' W 004°27'0 0.0
2019-Jun-13 07:58N 48°23' W 004°27'0 0.0
2019-Jun-13 07:28N 48°23' W 004°27'0 0.0
2019-Jun-13 06:58N 48°23' W 004°27'0 0.0
2019-Jun-13 06:28N 48°23' W 004°27'0 0.0
2019-Jun-13 05:58N 48°23' W 004°27'0 0.0
2019-Jun-13 05:28N 48°23' W 004°27'0 0.0
2019-Jun-13 04:58N 48°23' W 004°27'0 0.0
2019-Jun-13 04:28N 48°23' W 004°27'0 0.0
2019-Jun-13 03:58N 48°23' W 004°27'0 0.0
2019-Jun-13 03:28N 48°23' W 004°27'0 0.0
2019-Jun-13 02:58N 48°23' W 004°27'0 0.0
2019-Jun-13 02:28N 48°23' W 004°27'0 0.0
2019-Jun-13 01:58N 48°23' W 004°27'0 0.0
2019-Jun-13 01:28N 48°23' W 004°27'0 0.0
2019-Jun-13 00:58N 48°23' W 004°27'0 0.0
2019-Jun-13 00:28N 48°23' W 004°27'0 0.0
2019-Jun-12 23:58N 48°23' W 004°27'0 0.0
2019-Jun-12 23:28N 48°23' W 004°27'0 0.0
2019-Jun-12 22:58N 48°23' W 004°27'0 0.0
2019-Jun-12 22:28N 48°23' W 004°27'0 0.0
2019-Jun-12 21:58N 48°23' W 004°27'0 0.0
2019-Jun-12 21:28N 48°23' W 004°27'0 0.0
2019-Jun-12 20:58N 48°23' W 004°27'0 0.0
2019-Jun-12 20:28N 48°23' W 004°27'0 0.0
2019-Jun-12 19:58N 48°23' W 004°27'0 0.0
2019-Jun-12 19:28N 48°23' W 004°27'0 0.0
2019-Jun-12 18:58N 48°23' W 004°27'0 0.0
2019-Jun-12 18:28N 48°23' W 004°27'0 0.0
2019-Jun-12 17:58N 48°23' W 004°27'0 0.0
2019-Jun-12 17:28N 48°23' W 004°27'0 0.0
2019-Jun-12 16:58N 48°23' W 004°27'0 0.0
2019-Jun-12 16:28N 48°23' W 004°27'0 0.0
2019-Jun-12 15:58N 48°23' W 004°27'0 0.0
2019-Jun-12 15:28N 48°23' W 004°27'0 0.0
2019-Jun-12 14:58N 48°23' W 004°27'0 0.0
2019-Jun-12 14:28N 48°23' W 004°27'0 0.0
2019-Jun-12 13:58N 48°23' W 004°27'0 0.0
2019-Jun-12 13:28N 48°23' W 004°27'0 0.0
2019-Jun-12 12:58N 48°23' W 004°27'0 0.0
2019-Jun-12 12:28N 48°23' W 004°27'0 0.0
2019-Jun-12 11:58N 48°23' W 004°27'0 0.0
2019-Jun-12 11:28N 48°23' W 004°27'0 0.0
2019-Jun-12 10:58N 48°23' W 004°27'0 0.0
2019-Jun-12 10:28N 48°23' W 004°27'0 0.0
2019-Jun-12 09:58N 48°23' W 004°27'0 0.0
2019-Jun-12 09:28N 48°23' W 004°27'0 0.0
2019-Jun-12 08:58N 48°23' W 004°27'0 0.0
2019-Jun-12 08:28N 48°23' W 004°27'0 0.0
2019-Jun-12 07:58N 48°23' W 004°27'0 0.0
2019-Jun-12 07:28N 48°23' W 004°27'0 0.0
2019-Jun-12 06:58N 48°23' W 004°27'0 0.0
2019-Jun-12 06:28N 48°23' W 004°27'0 0.0
2019-Jun-12 05:58N 48°23' W 004°27'0 0.0
2019-Jun-12 05:28N 48°23' W 004°27'0 0.0
2019-Jun-12 04:58N 48°23' W 004°27'0 0.0
2019-Jun-12 04:28N 48°23' W 004°27'0 0.0
2019-Jun-12 03:58N 48°23' W 004°27'0 0.0
2019-Jun-12 03:28N 48°23' W 004°27'0 0.0
2019-Jun-12 02:58N 48°23' W 004°27'0 0.0
2019-Jun-12 01:58N 48°23' W 004°27'0 0.0
2019-Jun-12 01:28N 48°23' W 004°27'0 0.0
2019-Jun-12 00:58N 48°23' W 004°27'0 0.0
2019-Jun-12 00:28N 48°23' W 004°27'0 0.0
2019-Jun-11 23:58N 48°23' W 004°27'0 0.0
2019-Jun-11 23:28N 48°23' W 004°27'0 0.0
2019-Jun-11 22:58N 48°23' W 004°27'0 0.0
2019-Jun-11 22:28N 48°23' W 004°27'0 0.0
2019-Jun-11 21:58N 48°23' W 004°27'0 0.0
2019-Jun-11 21:28N 48°23' W 004°27'0 0.0
2019-Jun-11 20:58N 48°23' W 004°27'0 0.0
2019-Jun-11 20:28N 48°23' W 004°27'0 0.0
2019-Jun-11 19:58N 48°23' W 004°27'0 0.0
2019-Jun-11 19:28N 48°23' W 004°27'0 0.0
2019-Jun-11 18:58N 48°23' W 004°27'0 0.0
2019-Jun-11 18:28N 48°23' W 004°27'0 0.0
2019-Jun-11 17:58N 48°23' W 004°27'0 0.0
2019-Jun-11 17:28N 48°23' W 004°27'0 0.0
2019-Jun-11 16:58N 48°23' W 004°27'0 0.0
2019-Jun-11 16:28N 48°23' W 004°27'0 0.0
2019-Jun-11 15:58N 48°23' W 004°27'0 0.0
2019-Jun-11 15:28N 48°23' W 004°27'0 0.0
2019-Jun-11 14:58N 48°23' W 004°27'0 0.0
2019-Jun-11 14:28N 48°23' W 004°27'0 0.0
2019-Jun-11 13:58N 48°23' W 004°27'0 0.0
2019-Jun-11 13:28N 48°23' W 004°27'0 0.0
2019-Jun-11 12:58N 48°23' W 004°27'0 0.0
2019-Jun-11 12:28N 48°23' W 004°27'0 0.0
2019-Jun-11 11:58N 48°23' W 004°27'0 0.0
2019-Jun-11 11:28N 48°23' W 004°27'0 0.0
2019-Jun-11 10:58N 48°23' W 004°27'0 0.0
2019-Jun-11 10:28N 48°23' W 004°27'0 0.0
2019-Jun-11 09:58N 48°23' W 004°27'0 0.0
2019-Jun-11 09:28N 48°23' W 004°27'0 0.0
2019-Jun-11 08:58N 48°23' W 004°27'0 0.0
2019-Jun-11 08:28N 48°23' W 004°27'0 0.0
2019-Jun-11 07:58N 48°23' W 004°27'0 0.0
2019-Jun-11 07:28N 48°23' W 004°27'0 0.0
2019-Jun-11 06:58N 48°23' W 004°27'0 0.0
2019-Jun-11 06:28N 48°23' W 004°27'0 0.0
2019-Jun-11 05:58N 48°23' W 004°27'0 0.0
2019-Jun-11 05:28N 48°23' W 004°27'0 0.0
2019-Jun-11 04:58N 48°23' W 004°27'0 0.0
2019-Jun-11 04:28N 48°23' W 004°27'0 0.0
2019-Jun-11 03:58N 48°23' W 004°27'0 0.0
2019-Jun-11 03:28N 48°23' W 004°27'0 0.0
2019-Jun-11 02:58N 48°23' W 004°27'0 0.0
2019-Jun-11 02:28N 48°23' W 004°27'0 0.0
2019-Jun-11 01:58N 48°23' W 004°27'0 0.0
2019-Jun-11 01:28N 48°23' W 004°27'0 0.0
2019-Jun-11 00:58N 48°23' W 004°27'0 0.0
2019-Jun-11 00:28N 48°23' W 004°27'0 0.0
2019-Jun-10 23:58N 48°23' W 004°27'0 0.0
2019-Jun-10 23:28N 48°23' W 004°27'0 0.0
2019-Jun-10 22:58N 48°23' W 004°27'0 0.0
2019-Jun-10 22:28N 48°23' W 004°27'0 0.0
2019-Jun-10 21:58N 48°23' W 004°27'0 0.0
2019-Jun-10 21:28N 48°23' W 004°27'0 0.0
2019-Jun-10 20:58N 48°23' W 004°27'0 0.0
2019-Jun-10 20:28N 48°23' W 004°27'0 0.0
2019-Jun-10 19:58N 48°23' W 004°27'0 0.0
2019-Jun-10 19:28N 48°23' W 004°27'0 0.0
2019-Jun-10 18:58N 48°23' W 004°27'0 0.0
2019-Jun-10 18:28N 48°23' W 004°27'0 0.0
2019-Jun-10 17:58N 48°23' W 004°27'0 0.0
2019-Jun-10 17:28N 48°23' W 004°27'0 0.0
2019-Jun-10 16:58N 48°23' W 004°27'0 0.0
2019-Jun-10 16:28N 48°23' W 004°27'0 0.0
2019-Jun-10 15:58N 48°23' W 004°27'0 0.0
2019-Jun-10 15:28N 48°23' W 004°27'0 0.0
2019-Jun-10 14:58N 48°23' W 004°27'0 0.0
2019-Jun-10 14:28N 48°23' W 004°27'0 0.0
2019-Jun-10 13:58N 48°23' W 004°27'0 0.0
2019-Jun-10 13:28N 48°23' W 004°27'0 0.0
2019-Jun-10 12:58N 48°23' W 004°27'0 0.0
2019-Jun-10 12:28N 48°23' W 004°27'0 0.0
2019-Jun-10 11:58N 48°23' W 004°27'0 0.0
2019-Jun-10 11:28N 48°23' W 004°27'0 0.0
2019-Jun-10 10:58N 48°23' W 004°27'0 0.0
2019-Jun-10 10:28N 48°23' W 004°27'0 0.0
2019-Jun-10 09:58N 48°23' W 004°27'0 0.0
2019-Jun-10 09:28N 48°23' W 004°27'0 0.0
2019-Jun-10 08:58N 48°23' W 004°27'0 0.0
2019-Jun-10 08:28N 48°23' W 004°27'0 0.0
2019-Jun-10 07:58N 48°23' W 004°27'0 0.0
2019-Jun-10 07:28N 48°23' W 004°27'0 0.0
2019-Jun-10 06:58N 48°23' W 004°27'0 0.0
2019-Jun-10 06:28N 48°23' W 004°27'0 0.0
2019-Jun-10 05:58N 48°23' W 004°27'0 0.0
2019-Jun-10 05:28N 48°23' W 004°27'0 0.0
2019-Jun-10 04:58N 48°23' W 004°27'0 0.0
2019-Jun-10 04:28N 48°23' W 004°27'0 0.0
2019-Jun-10 03:58N 48°23' W 004°27'0 0.0
2019-Jun-10 03:28N 48°23' W 004°27'0 0.0
2019-Jun-10 02:58N 48°23' W 004°27'0 0.0
2019-Jun-10 02:28N 48°23' W 004°27'0 0.0
2019-Jun-10 01:58N 48°23' W 004°27'0 0.0
2019-Jun-10 01:28N 48°23' W 004°27'0 0.0
2019-Jun-10 00:58N 48°23' W 004°27'0 0.0
2019-Jun-10 00:28N 48°23' W 004°27'0 0.0
2019-Jun-09 23:58N 48°23' W 004°27'0 0.0
2019-Jun-09 23:28N 48°23' W 004°27'0 0.0
2019-Jun-09 22:58N 48°23' W 004°27'0 0.0
2019-Jun-09 22:28N 48°23' W 004°27'0 0.0
2019-Jun-09 21:58N 48°23' W 004°27'0 0.0
2019-Jun-09 21:28N 48°23' W 004°27'0 0.0
2019-Jun-09 20:58N 48°23' W 004°27'0 0.0
2019-Jun-09 20:28N 48°23' W 004°27'0 0.0
2019-Jun-09 19:58N 48°23' W 004°27'0 0.0
2019-Jun-09 19:28N 48°23' W 004°27'0 0.0
2019-Jun-09 18:58N 48°23' W 004°27'0 0.0
2019-Jun-09 18:28N 48°23' W 004°27'0 0.0
2019-Jun-09 17:58N 48°23' W 004°27'0 0.0
2019-Jun-09 17:28N 48°23' W 004°27'0 0.0
2019-Jun-09 16:58N 48°23' W 004°27'0 0.0
2019-Jun-09 16:28N 48°23' W 004°27'0 0.0
2019-Jun-09 15:58N 48°23' W 004°27'0 0.0
2019-Jun-09 15:28N 48°23' W 004°27'0 0.0
2019-Jun-09 14:58N 48°23' W 004°27'0 0.0
2019-Jun-09 14:28N 48°23' W 004°27'0 0.0
2019-Jun-09 13:58N 48°23' W 004°27'0 0.0
2019-Jun-09 13:28N 48°23' W 004°27'0 0.0
2019-Jun-09 12:58N 48°23' W 004°27'0 0.0
2019-Jun-09 12:28N 48°23' W 004°27'0 0.0
2019-Jun-09 11:58N 48°23' W 004°27'0 0.0
2019-Jun-09 11:28N 48°23' W 004°27'0 0.0
2019-Jun-09 10:58N 48°23' W 004°27'0 0.0
2019-Jun-09 10:28N 48°23' W 004°27'0 0.0
2019-Jun-09 09:55N 48°23' W 004°27'0 0.0
2019-Jun-09 09:28N 48°23' W 004°27'0 0.0
2019-Jun-09 08:58N 48°23' W 004°27'0 0.0
2019-Jun-09 08:28N 48°23' W 004°27'0 0.0
2019-Jun-09 07:58N 48°23' W 004°27'0 0.0
2019-Jun-09 07:28N 48°23' W 004°27'0 0.0
2019-Jun-09 06:58N 48°23' W 004°27'0 0.0
2019-Jun-09 06:28N 48°23' W 004°27'0 0.0
2019-Jun-09 05:58N 48°23' W 004°27'0 0.0
2019-Jun-09 05:28N 48°23' W 004°27'0 0.0
2019-Jun-09 04:58N 48°23' W 004°27'0 0.0
2019-Jun-09 03:58N 48°23' W 004°27'0 0.0
2019-Jun-09 03:28N 48°23' W 004°27'0 0.0
2019-Jun-09 02:58N 48°23' W 004°27'0 0.0
2019-Jun-09 02:28N 48°23' W 004°27'0 0.0
2019-Jun-09 01:58N 48°23' W 004°27'0 0.0
2019-Jun-09 01:28N 48°23' W 004°27'0 0.0
2019-Jun-09 00:58N 48°23' W 004°27'0 0.0
2019-Jun-09 00:28N 48°23' W 004°27'0 0.0
2019-Jun-08 23:58N 48°23' W 004°27'0 0.0
2019-Jun-08 23:28N 48°23' W 004°27'0 0.0
2019-Jun-08 22:58N 48°23' W 004°27'0 0.0
2019-Jun-08 22:28N 48°23' W 004°27'0 0.0
2019-Jun-08 21:58N 48°23' W 004°27'0 0.0
2019-Jun-08 21:28N 48°23' W 004°27'0 0.0
2019-Jun-08 20:58N 48°23' W 004°27'0 0.0
2019-Jun-08 20:28N 48°23' W 004°27'0 0.0
2019-Jun-08 19:58N 48°23' W 004°27'0 0.0
2019-Jun-08 19:28N 48°23' W 004°27'0 0.0
2019-Jun-08 18:58N 48°23' W 004°27'0 0.0
2019-Jun-08 18:28N 48°23' W 004°27'0 0.0
2019-Jun-08 17:58N 48°23' W 004°27'0 0.0
2019-Jun-08 17:28N 48°23' W 004°27'0 0.0
2019-Jun-08 16:58N 48°23' W 004°27'0 0.0
2019-Jun-08 16:28N 48°23' W 004°27'0 0.0
2019-Jun-08 15:58N 48°23' W 004°27'0 0.0
2019-Jun-08 15:28N 48°23' W 004°27'0 0.0
2019-Jun-08 14:58N 48°23' W 004°27'0 0.0
2019-Jun-08 14:28N 48°23' W 004°27'0 0.0
2019-Jun-08 13:58N 48°23' W 004°27'0 0.0
2019-Jun-08 13:28N 48°23' W 004°27'0 0.0
2019-Jun-08 12:58N 48°23' W 004°27'0 0.0
2019-Jun-08 12:28N 48°23' W 004°27'0 0.0
2019-Jun-08 11:58N 48°23' W 004°27'0 0.0
2019-Jun-08 11:28N 48°23' W 004°27'0 0.0
2019-Jun-08 10:58N 48°23' W 004°27'0 0.0
2019-Jun-08 10:28N 48°23' W 004°27'0 0.0
2019-Jun-08 09:58N 48°23' W 004°27'0 0.0
2019-Jun-08 09:28N 48°23' W 004°27'0 0.0
2019-Jun-08 08:58N 48°23' W 004°27'0 0.0
2019-Jun-08 08:28N 48°23' W 004°27'0 0.0
2019-Jun-08 07:58N 48°23' W 004°27'0 0.0
2019-Jun-08 07:28N 48°23' W 004°27'0 0.0
2019-Jun-08 06:58N 48°23' W 004°27'0 0.0
2019-Jun-08 06:28N 48°23' W 004°27'0 0.0
2019-Jun-08 05:58N 48°23' W 004°27'0 0.0
2019-Jun-08 05:28N 48°23' W 004°27'0 0.0
2019-Jun-08 04:58N 48°23' W 004°27'0 0.0
2019-Jun-08 04:28N 48°23' W 004°27'0 0.0
2019-Jun-08 03:58N 48°23' W 004°27'0 0.0
2019-Jun-08 03:28N 48°23' W 004°27'0 0.0
2019-Jun-08 02:58N 48°23' W 004°27'0 0.0
2019-Jun-08 02:28N 48°23' W 004°27'0 0.0
2019-Jun-08 01:58N 48°23' W 004°27'0 0.0
2019-Jun-08 01:28N 48°23' W 004°27'0 0.0
2019-Jun-08 00:58N 48°23' W 004°27'0 0.0
2019-Jun-08 00:28N 48°23' W 004°27'0 0.0
2019-Jun-07 23:58N 48°23' W 004°27'0 0.0
2019-Jun-07 23:28N 48°23' W 004°27'0 0.0
2019-Jun-07 22:58N 48°23' W 004°27'0 0.0
2019-Jun-07 22:28N 48°23' W 004°27'0 0.0
2019-Jun-07 21:58N 48°23' W 004°27'0 0.0
2019-Jun-07 21:28N 48°23' W 004°27'0 0.0
2019-Jun-07 20:58N 48°23' W 004°27'0 0.0
2019-Jun-07 20:28N 48°23' W 004°27'0 0.0
2019-Jun-07 19:58N 48°23' W 004°27'0 0.0
2019-Jun-07 19:28N 48°23' W 004°27'0 0.0
2019-Jun-07 18:58N 48°23' W 004°27'0 0.0
2019-Jun-07 18:28N 48°23' W 004°27'0 0.0
2019-Jun-07 17:58N 48°23' W 004°27'0 0.0
2019-Jun-07 17:28N 48°23' W 004°27'0 0.0
2019-Jun-07 16:58N 48°23' W 004°27'0 0.0
2019-Jun-07 16:28N 48°23' W 004°27'0 0.0
2019-Jun-07 15:58N 48°23' W 004°27'0 0.0
2019-Jun-07 15:28N 48°23' W 004°27'0 0.0
2019-Jun-07 14:58N 48°23' W 004°27'0 0.0
2019-Jun-07 14:28N 48°23' W 004°27'0 0.0
2019-Jun-07 13:58N 48°23' W 004°27'0 0.0
2019-Jun-07 13:28N 48°23' W 004°27'0 0.0
2019-Jun-07 12:58N 48°23' W 004°27'0 0.0
2019-Jun-07 12:28N 48°23' W 004°27'0 0.0
2019-Jun-07 11:58N 48°23' W 004°27'0 0.0
2019-Jun-07 11:28N 48°23' W 004°27'0 0.0
2019-Jun-07 10:58N 48°23' W 004°27'0 0.0
2019-Jun-07 10:28N 48°23' W 004°27'0 0.0
2019-Jun-07 09:58N 48°23' W 004°27'0 0.0
2019-Jun-07 09:28N 48°23' W 004°27'0 0.0
2019-Jun-07 08:58N 48°23' W 004°27'0 0.0
2019-Jun-07 08:28N 48°23' W 004°27'0 0.0
2019-Jun-07 07:58N 48°23' W 004°27'0 0.0
2019-Jun-07 07:28N 48°23' W 004°27'0 0.0
2019-Jun-07 06:58N 48°23' W 004°27'0 0.0
2019-Jun-07 06:28N 48°23' W 004°27'0 0.0
2019-Jun-07 05:58N 48°23' W 004°27'0 0.0
2019-Jun-07 05:28N 48°23' W 004°27'0 0.0
2019-Jun-07 04:58N 48°23' W 004°27'0 0.0
2019-Jun-07 04:28N 48°23' W 004°27'0 0.0
2019-Jun-07 03:58N 48°23' W 004°27'0 0.0
2019-Jun-07 03:28N 48°23' W 004°27'0 0.0
2019-Jun-07 02:58N 48°23' W 004°27'0 0.0
2019-Jun-07 02:28N 48°23' W 004°27'0 0.0
2019-Jun-07 01:58N 48°23' W 004°27'0 0.0
2019-Jun-07 01:28N 48°23' W 004°27'0 0.0
2019-Jun-07 00:58N 48°23' W 004°27'0 0.0
2019-Jun-07 00:28N 48°23' W 004°27'0 0.0
2019-Jun-06 23:58N 48°23' W 004°27'0 0.0
2019-Jun-06 23:28N 48°23' W 004°27'0 0.0
2019-Jun-06 22:58N 48°23' W 004°27'0 0.0
2019-Jun-06 22:28N 48°23' W 004°27'0 0.0
2019-Jun-06 21:58N 48°23' W 004°27'0 0.0
2019-Jun-06 21:28N 48°23' W 004°27'0 0.0
2019-Jun-06 20:58N 48°23' W 004°27'0 0.0
2019-Jun-06 20:28N 48°23' W 004°27'0 0.0
2019-Jun-06 19:58N 48°23' W 004°27'0 0.0
2019-Jun-06 19:28N 48°23' W 004°27'0 0.0
2019-Jun-06 18:58N 48°23' W 004°27'0 0.0
2019-Jun-06 18:28N 48°23' W 004°27'0 0.0
2019-Jun-06 17:58N 48°23' W 004°27'0 0.0
2019-Jun-06 17:28N 48°23' W 004°27'0 0.0
2019-Jun-06 16:58N 48°23' W 004°27'0 0.0
2019-Jun-06 16:28N 48°23' W 004°27'0 0.0
2019-Jun-06 15:58N 48°23' W 004°27'0 0.0
2019-Jun-06 15:28N 48°23' W 004°27'0 0.0
2019-Jun-06 14:58N 48°23' W 004°27'  

Dump ship's entire track history